Time;durP1;ratioP1;P1;durP2;ratioP2;P2;SDS_P1;SDS_P2;PMS_P1;PMS_P2;Temp;Humidity;BMP_temperature;BMP_pressure;BME280_temperature;BME280_humidity;BME280_pressure;Samples;Min_cycle;Max_cycle;Signal;HPM_P1;HPM_P2
2023/12/05 00:01:11;;;;;;;12.75;7.93;;;;;;;;;;6222348;28;20480;-73
2023/12/05 00:04:15;;;;;;;10.13;6.82;;;;;;;;;;6238020;28;20046;-72
2023/12/05 00:07:19;;;;;;;10.32;6.00;;;;;;;;;;6201963;28;20048;-72
2023/12/05 00:10:21;;;;;;;12.43;5.72;;;;;;;;;;6234538;28;20052;-72
2023/12/05 00:13:23;;;;;;;9.02;5.93;;;;;;;;;;6244068;28;20053;-73
2023/12/05 00:16:27;;;;;;;8.40;4.55;;;;;;;;;;6225765;28;20484;-72
2023/12/05 00:19:29;;;;;;;11.77;5.65;;;;;;;;;;6222223;28;20045;-72
2023/12/05 00:22:31;;;;;;;9.85;5.63;;;;;;;;;;6215408;28;20057;-73
2023/12/05 00:25:34;;;;;;;6.85;5.60;;;;;;;;;;6194767;28;20071;-72
2023/12/05 00:28:37;;;;;;;6.70;4.30;;;;;;;;;;6248217;28;20056;-73
2023/12/05 00:31:40;;;;;;;9.65;5.65;;;;;;;;;;6235850;28;20069;-72
2023/12/05 00:34:48;;;;;;;10.10;7.38;;;;;;;;;;6223572;28;20566;-73
2023/12/05 00:37:53;;;;;;;10.55;6.47;;;;;;;;;;6214248;28;20034;-73
2023/12/05 00:41:02;;;;;;;10.65;6.95;;;;;;;;;;6230454;28;20042;-73
2023/12/05 00:44:05;;;;;;;10.20;5.20;;;;;;;;;;6254839;28;20040;-72
2023/12/05 00:47:08;;;;;;;9.23;6.43;;;;;;;;;;6234396;28;20553;-72
2023/12/05 00:50:13;;;;;;;8.88;6.72;;;;;;;;;;6236853;28;20590;-73
2023/12/05 00:53:16;;;;;;;9.98;6.45;;;;;;;;;;6236354;28;20928;-73
2023/12/05 00:56:20;;;;;;;11.20;6.35;;;;;;;;;;6231341;28;20080;-73
2023/12/05 00:59:23;;;;;;;10.30;5.97;;;;;;;;;;6208239;28;20442;-72
2023/12/05 01:02:25;;;;;;;10.95;6.05;;;;;;;;;;6227776;28;20084;-72
2023/12/05 01:05:29;;;;;;;9.40;5.88;;;;;;;;;;6225925;28;20216;-73
2023/12/05 01:08:32;;;;;;;11.57;5.93;;;;;;;;;;6219348;28;20587;-73
2023/12/05 01:11:35;;;;;;;10.82;4.88;;;;;;;;;;6229066;28;20466;-72
2023/12/05 01:14:39;;;;;;;9.25;4.70;;;;;;;;;;6239895;28;20038;-72
2023/12/05 01:17:41;;;;;;;5.80;4.70;;;;;;;;;;6231404;28;20141;-72
2023/12/05 01:20:43;;;;;;;5.68;3.75;;;;;;;;;;6188769;28;20080;-71
2023/12/05 01:23:45;;;;;;;10.15;4.57;;;;;;;;;;6233466;28;20068;-73
2023/12/05 01:26:47;;;;;;;8.43;4.63;;;;;;;;;;6224967;28;20774;-72
2023/12/05 01:29:49;;;;;;;9.55;4.95;;;;;;;;;;6216885;28;20049;-70
2023/12/05 01:32:51;;;;;;;6.25;4.72;;;;;;;;;;6237268;28;20041;-72
2023/12/05 01:35:53;;;;;;;8.35;5.07;;;;;;;;;;6234657;28;20650;-72
2023/12/05 01:38:57;;;;;;;7.78;4.68;;;;;;;;;;6194967;28;20143;-72
2023/12/05 01:41:59;;;;;;;7.75;6.93;;;;;;;;;;6222131;28;20046;-73
2023/12/05 01:45:03;;;;;;;9.15;5.90;;;;;;;;;;6219402;28;20041;-73
2023/12/05 01:48:05;;;;;;;8.00;4.72;;;;;;;;;;6200627;28;20511;-72
2023/12/05 01:51:09;;;;;;;8.07;5.10;;;;;;;;;;6214828;28;20052;-72
2023/12/05 01:54:11;;;;;;;12.05;5.00;;;;;;;;;;6228060;28;20511;-72
2023/12/05 01:57:13;;;;;;;7.03;4.15;;;;;;;;;;6217531;28;20037;-72
2023/12/05 02:00:16;;;;;;;7.18;3.10;;;;;;;;;;6213086;28;20064;-72
2023/12/05 02:03:19;;;;;;;8.90;4.72;;;;;;;;;;6229261;28;20052;-72
2023/12/05 02:06:22;;;;;;;7.60;4.72;;;;;;;;;;6220195;28;20073;-72
2023/12/05 02:09:25;;;;;;;7.22;4.13;;;;;;;;;;6223890;28;20049;-73
2023/12/05 02:12:27;;;;;;;6.70;3.78;;;;;;;;;;6231230;28;20041;-72
2023/12/05 02:15:29;;;;;;;5.55;3.28;;;;;;;;;;6233630;28;20049;-72
2023/12/05 02:18:38;;;;;;;7.07;4.13;;;;;;;;;;6239159;28;20062;-72
2023/12/05 02:21:43;;;;;;;6.72;3.30;;;;;;;;;;6217994;28;20053;-72
2023/12/05 02:25:27;;;;;;;7.80;4.53;;;;;;;;;;6214019;28;21006;-72
2023/12/05 02:28:30;;;;;;;6.68;3.00;;;;;;;;;;6218459;28;20057;-73
2023/12/05 02:31:32;;;;;;;7.22;3.88;;;;;;;;;;6203793;28;20080;-72
2023/12/05 02:34:34;;;;;;;6.35;3.50;;;;;;;;;;6217761;28;20079;-72
2023/12/05 02:38:06;;;;;;;6.07;3.58;;;;;;;;;;6227511;28;20140;-73
2023/12/05 02:41:13;;;;;;;5.95;3.72;;;;;;;;;;6188054;28;20049;-73
2023/12/05 02:44:16;;;;;;;7.32;4.13;;;;;;;;;;6197594;28;20046;-72
2023/12/05 02:47:22;;;;;;;6.53;3.97;;;;;;;;;;6217172;28;20040;-72
2023/12/05 02:50:24;;;;;;;8.35;4.80;;;;;;;;;;6200723;28;20049;-72
2023/12/05 02:53:27;;;;;;;11.23;5.82;;;;;;;;;;6217014;28;20174;-72
2023/12/05 02:56:29;;;;;;;8.05;4.03;;;;;;;;;;6230267;28;20034;-72
2023/12/05 02:59:31;;;;;;;6.18;4.07;;;;;;;;;;6225773;28;20049;-72
2023/12/05 03:02:33;;;;;;;5.50;4.25;;;;;;;;;;6220056;28;20134;-72
2023/12/05 03:05:36;;;;;;;6.95;4.60;;;;;;;;;;6231383;28;20034;-72
2023/12/05 03:08:39;;;;;;;6.28;4.63;;;;;;;;;;6238739;28;20053;-72
2023/12/05 03:11:41;;;;;;;7.78;4.38;;;;;;;;;;6207989;28;20053;-72
2023/12/05 03:14:43;;;;;;;7.13;5.60;;;;;;;;;;6224615;28;20058;-75
2023/12/05 03:17:45;;;;;;;7.70;3.78;;;;;;;;;;6228587;28;20169;-72
2023/12/05 03:20:50;;;;;;;7.18;4.28;;;;;;;;;;6219353;28;20049;-71
2023/12/05 03:23:53;;;;;;;6.55;4.35;;;;;;;;;;6251240;28;20065;-72
2023/12/05 03:26:55;;;;;;;6.25;4.20;;;;;;;;;;6251247;28;20099;-72
2023/12/05 03:29:58;;;;;;;8.45;4.93;;;;;;;;;;6211022;28;20049;-72
2023/12/05 03:33:00;;;;;;;6.47;4.05;;;;;;;;;;6234107;28;20060;-72
2023/12/05 03:36:03;;;;;;;9.07;5.63;;;;;;;;;;6236161;28;20612;-72
2023/12/05 03:39:05;;;;;;;6.47;3.67;;;;;;;;;;6248831;28;20040;-73
2023/12/05 03:42:07;;;;;;;12.27;6.07;;;;;;;;;;6235570;28;20088;-72
2023/12/05 03:45:09;;;;;;;7.88;3.60;;;;;;;;;;6217759;28;20053;-72
2023/12/05 03:48:11;;;;;;;6.93;3.92;;;;;;;;;;6256279;28;20517;-74
2023/12/05 03:51:13;;;;;;;6.25;4.50;;;;;;;;;;6231334;28;20148;-73
2023/12/05 03:54:16;;;;;;;8.27;4.82;;;;;;;;;;6237463;28;20037;-73
2023/12/05 03:57:18;;;;;;;7.82;5.57;;;;;;;;;;6243381;28;20043;-74
2023/12/05 04:00:20;;;;;;;9.15;4.72;;;;;;;;;;6235131;28;20048;-73
2023/12/05 04:03:22;;;;;;;7.85;5.25;;;;;;;;;;6230868;28;20542;-73
2023/12/05 04:06:25;;;;;;;7.30;4.95;;;;;;;;;;6217396;28;20052;-74
2023/12/05 04:09:27;;;;;;;8.82;5.10;;;;;;;;;;6226207;28;20523;-73
2023/12/05 04:12:29;;;;;;;9.07;5.38;;;;;;;;;;6238343;28;20052;-73
2023/12/05 04:15:32;;;;;;;8.18;5.18;;;;;;;;;;6227834;28;20049;-74
2023/12/05 04:18:35;;;;;;;10.05;6.38;;;;;;;;;;6250996;28;20483;-73
2023/12/05 04:21:37;;;;;;;6.85;4.65;;;;;;;;;;6236368;28;20416;-73
2023/12/05 04:24:39;;;;;;;10.98;6.15;;;;;;;;;;6224605;28;20484;-74
2023/12/05 04:27:43;;;;;;;8.57;5.32;;;;;;;;;;6238367;28;20060;-72
2023/12/05 04:30:45;;;;;;;8.32;4.97;;;;;;;;;;6226974;28;20450;-72
2023/12/05 04:33:47;;;;;;;7.07;5.55;;;;;;;;;;6236292;28;20170;-73
2023/12/05 04:36:50;;;;;;;8.70;5.70;;;;;;;;;;6241427;28;20092;-73
2023/12/05 04:39:52;;;;;;;9.45;5.35;;;;;;;;;;6219523;28;20058;-73
2023/12/05 04:42:56;;;;;;;8.32;6.22;;;;;;;;;;6219149;28;20046;-74
2023/12/05 04:46:00;;;;;;;9.43;7.00;;;;;;;;;;6238093;28;20624;-73
2023/12/05 04:49:05;;;;;;;12.10;7.25;;;;;;;;;;6238866;28;20033;-73
2023/12/05 04:52:08;;;;;;;10.02;5.70;;;;;;;;;;6212275;28;20045;-72
2023/12/05 04:55:10;;;;;;;9.60;5.95;;;;;;;;;;6227460;28;20060;-74
2023/12/05 04:58:14;;;;;;;6.13;3.70;;;;;;;;;;6180645;28;20050;-74
2023/12/05 05:01:17;;;;;;;10.40;5.45;;;;;;;;;;6225085;28;20065;-74
2023/12/05 05:04:19;;;;;;;9.85;8.10;;;;;;;;;;6206929;28;20049;-74
2023/12/05 05:07:21;;;;;;;8.27;5.28;;;;;;;;;;6235723;28;20044;-74
2023/12/05 05:10:23;;;;;;;9.25;5.47;;;;;;;;;;6219823;28;20058;-74
2023/12/05 05:13:25;;;;;;;8.48;4.93;;;;;;;;;;6221179;28;20048;-74
2023/12/05 05:16:28;;;;;;;8.88;5.78;;;;;;;;;;6232785;28;20045;-76
2023/12/05 05:19:31;;;;;;;8.45;4.65;;;;;;;;;;6246772;28;20111;-74
2023/12/05 05:22:33;;;;;;;8.05;6.32;;;;;;;;;;6228749;28;20058;-74
2023/12/05 05:25:36;;;;;;;12.98;5.85;;;;;;;;;;6217197;28;20058;-71
2023/12/05 05:28:39;;;;;;;9.35;5.38;;;;;;;;;;6239410;28;20041;-72
2023/12/05 05:31:41;;;;;;;8.77;5.82;;;;;;;;;;6230355;28;20057;-73
2023/12/05 05:34:43;;;;;;;11.15;6.32;;;;;;;;;;6233014;28;20527;-74
2023/12/05 05:37:45;;;;;;;9.88;5.90;;;;;;;;;;6221321;28;20101;-74
2023/12/05 05:40:48;;;;;;;7.80;3.92;;;;;;;;;;6195285;28;20049;-73
2023/12/05 05:43:52;;;;;;;10.13;5.80;;;;;;;;;;6211878;28;20057;-73
2023/12/05 05:46:55;;;;;;;8.23;5.80;;;;;;;;;;6224589;28;20180;-73
2023/12/05 05:49:57;;;;;;;9.68;5.13;;;;;;;;;;6203244;28;20049;-73
2023/12/05 05:53:00;;;;;;;7.03;4.65;;;;;;;;;;6225565;28;20076;-73
2023/12/05 05:56:03;;;;;;;7.88;5.97;;;;;;;;;;6218969;28;20059;-73
2023/12/05 05:59:06;;;;;;;8.98;5.25;;;;;;;;;;6213825;28;20041;-73
2023/12/05 06:02:12;;;;;;;10.52;6.38;;;;;;;;;;6221227;28;20076;-73
2023/12/05 06:05:14;;;;;;;12.35;5.32;;;;;;;;;;6222865;28;20529;-73
2023/12/05 06:08:17;;;;;;;11.05;6.57;;;;;;;;;;6225091;28;20047;-73
2023/12/05 06:11:19;;;;;;;11.68;6.47;;;;;;;;;;6229413;28;20063;-73
2023/12/05 06:14:23;;;;;;;9.82;5.30;;;;;;;;;;6219133;28;20234;-72
2023/12/05 06:17:26;;;;;;;14.50;9.20;;;;;;;;;;6208516;28;20630;-73
2023/12/05 06:20:28;;;;;;;8.55;5.07;;;;;;;;;;6230695;28;20040;-73
2023/12/05 06:23:31;;;;;;;10.02;6.72;;;;;;;;;;6226004;28;20065;-73
2023/12/05 06:26:33;;;;;;;11.02;6.07;;;;;;;;;;6208537;28;20053;-73
2023/12/05 06:29:35;;;;;;;10.90;6.78;;;;;;;;;;6240699;28;20047;-73
2023/12/05 06:32:37;;;;;;;7.15;5.20;;;;;;;;;;6232420;28;20053;-73
2023/12/05 06:35:41;;;;;;;10.43;7.10;;;;;;;;;;6244857;28;20045;-73
2023/12/05 06:38:43;;;;;;;10.05;6.38;;;;;;;;;;6239436;28;20080;-73
2023/12/05 06:41:46;;;;;;;9.63;5.53;;;;;;;;;;6216549;28;20044;-73
2023/12/05 06:44:48;;;;;;;12.52;6.78;;;;;;;;;;6226737;28;20423;-73
2023/12/05 06:47:50;;;;;;;10.07;5.82;;;;;;;;;;6250690;28;20037;-73
2023/12/05 06:50:52;;;;;;;10.55;6.47;;;;;;;;;;6227641;28;20045;-73
2023/12/05 06:53:56;;;;;;;15.73;7.35;;;;;;;;;;6250279;28;20136;-73
2023/12/05 06:56:58;;;;;;;10.48;6.95;;;;;;;;;;6225926;28;20041;-73
2023/12/05 07:00:00;;;;;;;12.15;6.97;;;;;;;;;;6219605;28;20293;-73
2023/12/05 07:03:03;;;;;;;13.65;7.40;;;;;;;;;;6236238;28;20041;-74
2023/12/05 07:06:07;;;;;;;10.93;5.82;;;;;;;;;;6212504;28;20049;-73
2023/12/05 07:09:09;;;;;;;12.05;5.82;;;;;;;;;;6225159;28;20192;-73
2023/12/05 07:12:12;;;;;;;9.95;6.75;;;;;;;;;;6225185;28;20535;-74
2023/12/05 07:15:14;;;;;;;9.68;6.60;;;;;;;;;;6234079;28;20983;-73
2023/12/05 07:18:16;;;;;;;10.98;6.18;;;;;;;;;;6219251;28;20041;-73
2023/12/05 07:21:18;;;;;;;10.98;5.85;;;;;;;;;;6234503;28;20076;-73
2023/12/05 07:24:21;;;;;;;10.40;5.15;;;;;;;;;;6234481;28;20071;-73
2023/12/05 07:27:24;;;;;;;10.13;6.45;;;;;;;;;;6233315;28;20407;-73
2023/12/05 07:30:26;;;;;;;10.07;6.25;;;;;;;;;;6230804;28;20038;-73
2023/12/05 07:33:28;;;;;;;10.23;6.57;;;;;;;;;;6220570;28;20037;-72
2023/12/05 07:36:31;;;;;;;11.88;6.85;;;;;;;;;;6212763;28;20977;-72
2023/12/05 07:39:33;;;;;;;10.93;4.53;;;;;;;;;;6233148;28;20042;-72
2023/12/05 07:42:35;;;;;;;9.27;5.47;;;;;;;;;;6191678;28;20054;-72
2023/12/05 07:45:37;;;;;;;8.95;5.68;;;;;;;;;;6215676;28;20130;-73
2023/12/05 07:48:39;;;;;;;8.88;5.57;;;;;;;;;;6209656;28;20187;-73
2023/12/05 07:51:42;;;;;;;8.68;4.80;;;;;;;;;;6226242;28;20056;-73
2023/12/05 07:54:44;;;;;;;12.32;7.45;;;;;;;;;;6234614;28;20128;-73
2023/12/05 07:57:47;;;;;;;8.18;4.50;;;;;;;;;;6221269;28;20045;-73
2023/12/05 08:00:49;;;;;;;9.23;5.72;;;;;;;;;;6221319;28;20041;-73
2023/12/05 08:03:51;;;;;;;8.73;5.07;;;;;;;;;;6229649;28;20487;-73
2023/12/05 08:06:54;;;;;;;13.45;6.68;;;;;;;;;;6211061;28;20050;-73
2023/12/05 08:09:56;;;;;;;12.50;6.88;;;;;;;;;;6235867;28;20042;-72
2023/12/05 08:12:59;;;;;;;14.88;9.52;;;;;;;;;;6215018;28;20071;-72
2023/12/05 08:16:01;;;;;;;7.15;5.10;;;;;;;;;;6209276;28;20045;-72
2023/12/05 08:19:03;;;;;;;9.32;4.65;;;;;;;;;;6216647;28;20065;-72
2023/12/05 08:22:05;;;;;;;11.27;5.15;;;;;;;;;;6227249;28;20057;-72
2023/12/05 08:25:10;;;;;;;9.32;5.50;;;;;;;;;;6211247;28;20542;-72
2023/12/05 08:28:13;;;;;;;11.40;4.97;;;;;;;;;;6233343;28;20041;-72
2023/12/05 08:31:15;;;;;;;10.45;5.45;;;;;;;;;;6228477;28;20102;-72
2023/12/05 08:34:17;;;;;;;8.15;5.65;;;;;;;;;;6210825;28;20065;-72
2023/12/05 08:37:19;;;;;;;11.05;6.45;;;;;;;;;;6222760;28;20037;-72
2023/12/05 08:40:22;;;;;;;6.60;4.38;;;;;;;;;;6234010;28;20053;-73
2023/12/05 08:43:24;;;;;;;10.00;6.10;;;;;;;;;;6232946;28;20187;-73
2023/12/05 08:46:27;;;;;;;9.30;6.22;;;;;;;;;;6225919;28;20041;-73
2023/12/05 08:49:30;;;;;;;9.38;5.78;;;;;;;;;;6236751;28;20125;-73
2023/12/05 08:52:32;;;;;;;9.10;5.30;;;;;;;;;;6229449;28;20156;-73
2023/12/05 08:55:34;;;;;;;11.50;5.43;;;;;;;;;;6207849;28;20060;-73
2023/12/05 08:58:40;;;;;;;9.98;5.30;;;;;;;;;;6215205;28;20595;-74
2023/12/05 09:01:47;;;;;;;9.40;5.85;;;;;;;;;;6201180;28;20144;-73
2023/12/05 09:04:49;;;;;;;10.20;5.13;;;;;;;;;;6207402;28;20069;-73
2023/12/05 09:07:51;;;;;;;8.05;4.47;;;;;;;;;;6237120;28;20556;-72
2023/12/05 09:10:57;;;;;;;9.32;5.15;;;;;;;;;;6227486;28;20148;-73
2023/12/05 09:14:01;;;;;;;10.05;5.03;;;;;;;;;;6205868;28;20057;-73
2023/12/05 09:17:03;;;;;;;11.05;6.00;;;;;;;;;;6231842;28;20080;-73
2023/12/05 09:20:07;;;;;;;9.60;4.40;;;;;;;;;;6194292;28;20037;-72
2023/12/05 09:23:11;;;;;;;10.75;5.68;;;;;;;;;;6232950;28;20041;-73
2023/12/05 09:26:14;;;;;;;7.75;5.18;;;;;;;;;;6217732;28;20535;-73
2023/12/05 09:29:16;;;;;;;13.00;4.25;;;;;;;;;;6225725;28;20597;-72
2023/12/05 09:32:18;;;;;;;10.25;5.30;;;;;;;;;;6228446;28;20052;-73
2023/12/05 09:35:21;;;;;;;10.50;5.68;;;;;;;;;;6232710;28;20049;-73
2023/12/05 09:38:23;;;;;;;8.40;5.65;;;;;;;;;;6212586;28;20054;-73
2023/12/05 09:41:27;;;;;;;10.02;5.93;;;;;;;;;;6230667;28;20112;-73
2023/12/05 09:44:33;;;;;;;11.10;5.88;;;;;;;;;;6218383;28;20538;-73
2023/12/05 09:47:35;;;;;;;11.93;6.40;;;;;;;;;;6219510;28;20130;-73
2023/12/05 09:50:38;;;;;;;10.73;6.25;;;;;;;;;;6212143;28;20792;-73
2023/12/05 09:53:41;;;;;;;13.73;5.63;;;;;;;;;;6233361;28;20052;-73
2023/12/05 09:56:44;;;;;;;14.27;6.70;;;;;;;;;;6206050;28;20054;-73
2023/12/05 09:59:46;;;;;;;8.82;4.95;;;;;;;;;;6235824;28;20057;-73
2023/12/05 10:02:49;;;;;;;12.45;6.00;;;;;;;;;;6224195;28;20056;-73
2023/12/05 10:05:53;;;;;;;12.75;6.07;;;;;;;;;;6212190;28;20539;-74
2023/12/05 10:08:57;;;;;;;11.10;6.25;;;;;;;;;;6231809;28;20067;-73
2023/12/05 10:12:00;;;;;;;8.63;6.15;;;;;;;;;;6210753;28;20049;-74
2023/12/05 10:15:04;;;;;;;10.20;5.57;;;;;;;;;;6217379;28;20076;-73
2023/12/05 10:18:06;;;;;;;12.93;7.53;;;;;;;;;;6228628;28;20049;-73
2023/12/05 10:21:08;;;;;;;11.68;6.55;;;;;;;;;;6200797;28;20191;-72
2023/12/05 10:24:12;;;;;;;11.95;5.63;;;;;;;;;;6235684;28;20053;-73
2023/12/05 10:27:16;;;;;;;14.35;7.50;;;;;;;;;;6227636;28;20064;-74
2023/12/05 10:30:33;;;;;;;12.32;6.53;;;;;;;;;;6231329;28;20108;-73
2023/12/05 10:33:36;;;;;;;;;;;;;;;;;;6204294;28;20057;-73
2023/12/05 10:36:38;;;;;;;10.75;5.93;;;;;;;;;;6242015;28;19925;-74
2023/12/05 10:39:41;;;;;;;12.93;6.20;;;;;;;;;;6235570;28;20192;-72
2023/12/05 10:42:44;;;;;;;14.20;5.70;;;;;;;;;;6231629;28;20053;-72
2023/12/05 10:45:47;;;;;;;9.32;5.15;;;;;;;;;;6218962;28;20049;-72
2023/12/05 10:48:51;;;;;;;13.32;5.75;;;;;;;;;;6240188;28;20034;-73
2023/12/05 10:51:53;;;;;;;8.07;4.90;;;;;;;;;;6232875;28;20134;-73
2023/12/05 10:54:56;;;;;;;10.30;4.80;;;;;;;;;;6232472;28;20042;-71
2023/12/05 10:57:59;;;;;;;9.20;5.25;;;;;;;;;;6236960;28;20046;-73
2023/12/05 11:01:01;;;;;;;9.63;5.72;;;;;;;;;;6226304;28;20038;-73
2023/12/05 11:04:05;;;;;;;12.93;5.63;;;;;;;;;;6202728;28;20053;-75
2023/12/05 11:07:11;;;;;;;8.23;6.25;;;;;;;;;;6213960;28;20062;-73
2023/12/05 11:10:16;;;;;;;10.20;4.97;;;;;;;;;;6209821;28;20041;-73
2023/12/05 11:13:19;;;;;;;11.73;4.78;;;;;;;;;;6219104;28;20450;-72
2023/12/05 11:16:24;;;;;;;10.88;4.35;;;;;;;;;;6236870;28;20535;-73
2023/12/05 11:20:05;;;;;;;13.50;4.82;;;;;;;;;;6206661;28;20123;-73
2023/12/05 11:23:37;;;;;;;8.38;4.75;;;;;;;;;;6234152;28;20581;-74
2023/12/05 11:27:08;;;;;;;11.30;6.03;;;;;;;;;;6211922;28;20060;-74
2023/12/05 11:30:24;;;;;;;7.45;3.92;;;;;;;;;;6227539;28;20056;-73
2023/12/05 11:33:51;;;;;;;8.35;5.22;;;;;;;;;;6236981;28;20049;-74
2023/12/05 11:37:18;;;;;;;12.65;5.68;;;;;;;;;;6231727;28;20328;-74
2023/12/05 11:40:20;;;;;;;10.48;6.10;;;;;;;;;;6241961;28;20049;-74
2023/12/05 11:43:22;;;;;;;10.50;5.72;;;;;;;;;;6221037;28;20133;-74
2023/12/05 11:46:33;;;;;;;9.27;4.85;;;;;;;;;;6249669;28;20203;-74
2023/12/05 11:49:50;;;;;;;10.27;5.03;;;;;;;;;;6232695;28;20042;-74
2023/12/05 11:52:52;;;;;;;8.55;4.70;;;;;;;;;;6244281;28;20060;-74
2023/12/05 11:55:57;;;;;;;7.95;4.20;;;;;;;;;;6249326;28;20065;-74
2023/12/05 11:59:14;;;;;;;8.70;5.15;;;;;;;;;;6250146;28;20046;-75
2023/12/05 12:02:18;;;;;;;11.10;5.05;;;;;;;;;;6261528;28;20033;-75
2023/12/05 12:05:20;;;;;;;11.02;4.30;;;;;;;;;;6232587;28;20048;-74
2023/12/05 12:08:22;;;;;;;11.48;5.10;;;;;;;;;;6223075;28;20042;-75
2023/12/05 12:11:24;;;;;;;8.75;4.82;;;;;;;;;;6221279;28;20045;-75
2023/12/05 12:14:27;;;;;;;9.02;4.30;;;;;;;;;;6227248;28;20049;-75
2023/12/05 12:17:29;;;;;;;13.13;5.90;;;;;;;;;;6251869;28;20049;-75
2023/12/05 12:20:31;;;;;;;11.98;5.68;;;;;;;;;;6224521;28;20046;-74
2023/12/05 12:23:34;;;;;;;10.73;5.40;;;;;;;;;;6224763;28;20053;-74
2023/12/05 12:26:38;;;;;;;11.82;4.38;;;;;;;;;;6216592;28;20708;-74
2023/12/05 12:29:53;;;;;;;10.05;3.90;;;;;;;;;;6218865;28;20048;-74
2023/12/05 12:32:57;;;;;;;8.70;4.15;;;;;;;;;;6249619;28;20279;-74
2023/12/05 12:36:00;;;;;;;8.43;4.78;;;;;;;;;;6241256;28;20052;-74
2023/12/05 12:39:02;;;;;;;8.27;5.90;;;;;;;;;;6217988;28;20045;-74
2023/12/05 12:42:04;;;;;;;10.30;5.30;;;;;;;;;;6218609;28;20107;-74
2023/12/05 12:45:07;;;;;;;8.85;3.83;;;;;;;;;;6224473;28;20053;-74
2023/12/05 12:48:31;;;;;;;11.07;5.22;;;;;;;;;;6243797;28;20045;-74
2023/12/05 12:51:34;;;;;;;9.32;4.03;;;;;;;;;;6260476;28;20044;-75
2023/12/05 12:54:38;;;;;;;10.25;5.13;;;;;;;;;;6233287;28;20053;-74
2023/12/05 12:57:41;;;;;;;8.27;4.72;;;;;;;;;;6241758;28;20045;-75
2023/12/05 13:00:45;;;;;;;11.02;6.35;;;;;;;;;;6227191;28;20117;-75
2023/12/05 13:03:48;;;;;;;20.42;10.60;;;;;;;;;;6243390;28;20044;-74
2023/12/05 13:06:50;;;;;;;12.05;6.05;;;;;;;;;;6245431;28;20045;-75
2023/12/05 13:09:53;;;;;;;12.52;6.47;;;;;;;;;;6252577;28;20670;-74
2023/12/05 13:12:57;;;;;;;11.77;4.72;;;;;;;;;;6219657;28;20052;-73
2023/12/05 13:16:03;;;;;;;;;;;;;;;;;;6216115;28;20056;-72
2023/12/05 13:19:06;;;;;;;11.40;8.65;;;;;;;;;;6229698;28;19924;-72
2023/12/05 13:22:13;;;;;;;11.88;5.72;;;;;;;;;;6236180;28;20042;-72
2023/12/05 13:25:16;;;;;;;13.43;7.82;;;;;;;;;;6227452;28;20522;-72
2023/12/05 13:28:28;;;;;;;13.55;6.38;;;;;;;;;;6232306;28;20045;-74
2023/12/05 13:31:32;;;;;;;13.60;6.97;;;;;;;;;;6231103;28;20518;-72
2023/12/05 13:34:35;;;;;;;14.32;7.05;;;;;;;;;;6240089;28;20132;-75
2023/12/05 13:37:38;;;;;;;9.63;6.07;;;;;;;;;;6241233;28;20140;-74
2023/12/05 13:40:40;;;;;;;9.10;4.57;;;;;;;;;;6228921;28;20052;-75
2023/12/05 13:43:43;;;;;;;9.30;5.18;;;;;;;;;;6221650;28;20048;-75
2023/12/05 13:46:47;;;;;;;11.20;6.07;;;;;;;;;;6236243;28;20049;-75
2023/12/05 13:49:52;;;;;;;9.45;5.50;;;;;;;;;;6253711;28;20145;-76
2023/12/05 13:52:55;;;;;;;11.57;6.13;;;;;;;;;;6221527;28;20111;-75
2023/12/05 13:55:57;;;;;;;17.98;10.88;;;;;;;;;;6247706;28;20145;-75
2023/12/05 13:58:59;;;;;;;19.80;9.05;;;;;;;;;;6230925;28;20033;-75
2023/12/05 14:02:02;;;;;;;13.45;10.38;;;;;;;;;;6255262;28;20049;-75
2023/12/05 14:05:05;;;;;;;12.32;8.40;;;;;;;;;;6256633;28;20060;-76
2023/12/05 14:08:08;;;;;;;11.07;6.43;;;;;;;;;;6238366;28;20069;-75
2023/12/05 14:11:10;;;;;;;10.43;7.50;;;;;;;;;;6214659;28;20080;-75
2023/12/05 14:14:14;;;;;;;11.55;8.15;;;;;;;;;;6238381;28;20121;-75
2023/12/05 14:17:17;;;;;;;13.38;8.10;;;;;;;;;;6231968;28;20041;-75
2023/12/05 14:20:19;;;;;;;12.52;6.80;;;;;;;;;;6237187;28;20073;-75
2023/12/05 14:23:23;;;;;;;11.35;7.20;;;;;;;;;;6244258;28;20049;-75
2023/12/05 14:26:25;;;;;;;11.02;6.07;;;;;;;;;;6235442;28;20062;-74
2023/12/05 14:29:27;;;;;;;10.38;7.55;;;;;;;;;;6217627;28;20042;-75
2023/12/05 14:32:29;;;;;;;11.18;6.93;;;;;;;;;;6219732;28;20038;-75
2023/12/05 14:35:32;;;;;;;9.60;6.32;;;;;;;;;;6226005;28;20156;-75
2023/12/05 14:38:34;;;;;;;12.27;8.13;;;;;;;;;;6241823;28;20034;-74
2023/12/05 14:41:41;;;;;;;13.80;8.13;;;;;;;;;;6238734;28;20115;-74
2023/12/05 14:44:43;;;;;;;9.05;5.55;;;;;;;;;;6243546;28;20132;-75
2023/12/05 14:47:45;;;;;;;8.50;5.53;;;;;;;;;;6252422;28;20748;-75
2023/12/05 14:50:49;;;;;;;12.32;6.80;;;;;;;;;;6235653;28;20056;-74
2023/12/05 14:53:51;;;;;;;14.38;7.15;;;;;;;;;;6249368;28;20099;-75
2023/12/05 14:56:53;;;;;;;13.90;5.28;;;;;;;;;;6248416;28;20037;-75
2023/12/05 14:59:56;;;;;;;11.65;7.38;;;;;;;;;;6241339;28;20034;-75
2023/12/05 15:02:58;;;;;;;13.00;7.70;;;;;;;;;;6232192;28;20112;-74
2023/12/05 15:06:01;;;;;;;14.82;8.07;;;;;;;;;;6250220;28;20045;-75
2023/12/05 15:09:04;;;;;;;10.65;6.07;;;;;;;;;;6215003;28;20078;-75
2023/12/05 15:12:08;;;;;;;10.10;6.65;;;;;;;;;;6230439;28;20045;-74
2023/12/05 15:15:12;;;;;;;9.60;6.15;;;;;;;;;;6242535;28;20437;-74
2023/12/05 15:18:16;;;;;;;13.88;6.07;;;;;;;;;;6246001;28;20120;-74
2023/12/05 15:21:19;;;;;;;10.70;5.80;;;;;;;;;;6241822;28;20139;-74
2023/12/05 15:24:27;;;;;;;11.15;6.00;;;;;;;;;;6226741;28;20041;-76
2023/12/05 15:27:30;;;;;;;12.65;6.35;;;;;;;;;;6244601;28;20052;-73
2023/12/05 15:30:32;;;;;;;10.68;5.70;;;;;;;;;;6243827;28;20514;-75
2023/12/05 15:33:34;;;;;;;13.02;6.20;;;;;;;;;;6247609;28;20065;-74
2023/12/05 15:36:37;;;;;;;11.93;6.65;;;;;;;;;;6246041;28;20037;-74
2023/12/05 15:39:41;;;;;;;11.40;7.35;;;;;;;;;;6230995;28;20053;-75
2023/12/05 15:42:48;;;;;;;17.02;7.43;;;;;;;;;;6237007;28;20099;-74
2023/12/05 15:45:52;;;;;;;19.60;8.35;;;;;;;;;;6206713;28;20042;-74
2023/12/05 15:48:54;;;;;;;15.35;7.75;;;;;;;;;;6234334;28;20073;-75
2023/12/05 15:51:57;;;;;;;14.55;7.85;;;;;;;;;;6224863;28;20077;-74
2023/12/05 15:54:59;;;;;;;16.08;7.28;;;;;;;;;;6228005;28;20517;-74
2023/12/05 15:58:02;;;;;;;13.48;8.18;;;;;;;;;;6221244;28;20053;-73
2023/12/05 16:01:04;;;;;;;13.75;7.25;;;;;;;;;;6190735;28;20146;-74
2023/12/05 16:04:09;;;;;;;14.30;7.18;;;;;;;;;;6231123;28;20042;-71
2023/12/05 16:07:11;;;;;;;14.23;7.10;;;;;;;;;;6235841;28;20056;-72
2023/12/05 16:10:13;;;;;;;13.30;7.50;;;;;;;;;;6211428;28;20551;-72
2023/12/05 16:13:17;;;;;;;17.00;8.93;;;;;;;;;;6198719;28;20053;-71
2023/12/05 16:16:19;;;;;;;16.85;9.15;;;;;;;;;;6239093;28;20044;-71
2023/12/05 16:19:21;;;;;;;13.02;7.45;;;;;;;;;;6230060;28;20520;-70
2023/12/05 16:22:23;;;;;;;10.60;7.85;;;;;;;;;;6228804;28;20042;-70
2023/12/05 16:25:26;;;;;;;13.63;7.07;;;;;;;;;;6229676;28;20049;-71
2023/12/05 16:28:28;;;;;;;12.48;7.10;;;;;;;;;;6222063;28;20806;-71
2023/12/05 16:31:30;;;;;;;17.73;8.75;;;;;;;;;;6229478;28;20076;-71
2023/12/05 16:34:32;;;;;;;17.15;8.93;;;;;;;;;;6203640;28;20052;-71
2023/12/05 16:37:34;;;;;;;13.50;6.82;;;;;;;;;;6234155;28;20538;-71
2023/12/05 16:40:38;;;;;;;11.38;6.88;;;;;;;;;;6229450;28;20180;-70
2023/12/05 16:43:40;;;;;;;13.80;7.03;;;;;;;;;;6229758;28;20061;-73
2023/12/05 16:46:42;;;;;;;15.77;8.82;;;;;;;;;;6185452;28;20052;-71
2023/12/05 16:49:44;;;;;;;15.27;8.45;;;;;;;;;;6220039;28;20049;-72
2023/12/05 16:52:48;;;;;;;15.20;8.85;;;;;;;;;;6222062;28;20042;-72
2023/12/05 16:55:50;;;;;;;15.60;8.13;;;;;;;;;;6225717;28;20582;-72
2023/12/05 16:58:52;;;;;;;15.27;7.68;;;;;;;;;;6186517;28;20523;-72
2023/12/05 17:01:56;;;;;;;11.77;7.13;;;;;;;;;;6211490;28;20057;-73
2023/12/05 17:05:01;;;;;;;15.90;7.65;;;;;;;;;;6207903;28;20045;-72
2023/12/05 17:08:03;;;;;;;14.88;9.48;;;;;;;;;;6209828;28;20030;-71
2023/12/05 17:11:11;;;;;;;18.92;8.45;;;;;;;;;;6222822;28;20037;-71
2023/12/05 17:14:16;;;;;;;16.92;11.13;;;;;;;;;;6210925;28;20093;-72
2023/12/05 17:17:18;;;;;;;14.20;8.32;;;;;;;;;;6204634;28;20195;-72
2023/12/05 17:20:22;;;;;;;15.32;8.25;;;;;;;;;;6217132;28;20124;-72
2023/12/05 17:23:25;;;;;;;13.20;7.90;;;;;;;;;;6194276;28;20057;-72
2023/12/05 17:26:29;;;;;;;15.63;9.32;;;;;;;;;;6210791;28;20110;-74
2023/12/05 17:29:33;;;;;;;14.48;7.97;;;;;;;;;;6214881;28;20047;-72
2023/12/05 17:32:36;;;;;;;14.93;9.15;;;;;;;;;;6207340;28;20542;-73
2023/12/05 17:35:38;;;;;;;14.52;8.15;;;;;;;;;;6195406;28;20424;-72
2023/12/05 17:38:43;;;;;;;17.73;9.52;;;;;;;;;;6226724;28;20057;-72
2023/12/05 17:41:45;;;;;;;14.88;7.78;;;;;;;;;;6229476;28;20155;-73
2023/12/05 17:44:51;;;;;;;13.65;9.20;;;;;;;;;;6210262;28;20103;-71
2023/12/05 17:47:53;;;;;;;;;;;;;;;;;;6226306;28;20807;-72
2023/12/05 17:50:57;;;;;;;12.43;7.28;;;;;;;;;;6225356;28;19929;-72
2023/12/05 17:53:59;;;;;;;14.20;7.35;;;;;;;;;;6205894;28;20423;-72
2023/12/05 17:57:03;;;;;;;14.77;6.70;;;;;;;;;;6217153;28;20073;-73
2023/12/05 18:00:06;;;;;;;11.98;7.50;;;;;;;;;;6206858;28;20045;-72
2023/12/05 18:03:13;;;;;;;12.10;6.25;;;;;;;;;;6222899;28;20049;-73
2023/12/05 18:06:15;;;;;;;15.45;7.00;;;;;;;;;;6202578;28;20046;-72
2023/12/05 18:09:18;;;;;;;11.98;6.50;;;;;;;;;;6202155;28;20053;-74
2023/12/05 18:12:23;;;;;;;10.75;6.63;;;;;;;;;;6224886;28;20049;-73